createdAt,value
2022-10-18T00:00:36.533Z,21.87
2022-10-18T00:03:27.087Z,21.85
2022-10-18T00:06:17.408Z,21.83
2022-10-18T00:09:07.837Z,21.80
2022-10-18T00:11:57.712Z,21.78
2022-10-18T00:14:49.258Z,21.76
2022-10-18T00:17:40.439Z,21.77
2022-10-18T00:20:30.510Z,21.77
2022-10-18T00:23:20.088Z,21.76
2022-10-18T00:26:12.087Z,21.74
2022-10-18T00:29:05.157Z,21.72
2022-10-18T00:31:55.397Z,21.70
2022-10-18T00:34:45.294Z,21.70
2022-10-18T00:37:37.006Z,21.67
2022-10-18T00:40:27.250Z,21.65
2022-10-18T00:43:20.076Z,21.64
2022-10-18T00:46:10.518Z,21.62
2022-10-18T00:49:03.015Z,21.62
2022-10-18T00:51:58.264Z,21.62
2022-10-18T00:54:49.768Z,21.61
2022-10-18T00:57:41.656Z,21.60
2022-10-18T01:00:32.280Z,21.59
2022-10-18T01:03:22.328Z,21.57
2022-10-18T01:06:12.550Z,21.57
2022-10-18T01:09:18.097Z,21.57
2022-10-18T01:12:23.116Z,21.56
2022-10-18T01:15:18.025Z,21.55
2022-10-18T01:18:16.634Z,21.55
2022-10-18T01:21:43.960Z,21.54
2022-10-18T01:28:04.045Z,21.56
2022-10-18T01:30:59.267Z,21.55
2022-10-18T01:33:53.177Z,21.53
2022-10-18T01:36:47.297Z,21.51
2022-10-18T01:39:43.021Z,21.50
2022-10-18T01:42:33.734Z,21.50
2022-10-18T01:45:26.804Z,21.50
2022-10-18T01:48:17.690Z,21.51
2022-10-18T01:51:08.628Z,21.50
2022-10-18T01:53:58.590Z,21.50
2022-10-18T01:56:57.406Z,21.50
2022-10-18T01:59:59.406Z,21.50
2022-10-18T02:02:53.898Z,21.49
2022-10-18T02:05:50.513Z,21.49
2022-10-18T02:08:45.701Z,21.49
2022-10-18T02:11:37.860Z,21.49
2022-10-18T02:14:29.163Z,21.49
2022-10-18T02:17:22.534Z,21.48
2022-10-18T02:20:14.492Z,21.48
2022-10-18T02:23:06.965Z,21.48
2022-10-18T02:25:57.221Z,21.47
2022-10-18T02:28:48.033Z,21.46
2022-10-18T02:31:44.557Z,21.45
2022-10-18T02:34:39.640Z,21.44
2022-10-18T02:37:32.254Z,21.43
2022-10-18T02:40:23.096Z,21.42
2022-10-18T02:43:15.292Z,21.42
2022-10-18T02:46:06.996Z,21.42
2022-10-18T02:48:57.265Z,21.41
2022-10-18T02:51:47.598Z,21.40
2022-10-18T02:54:38.128Z,21.39
2022-10-18T02:57:29.071Z,21.38
2022-10-18T03:00:20.420Z,21.38
2022-10-18T03:03:12.244Z,21.38
2022-10-18T03:06:01.654Z,21.37
2022-10-18T03:08:51.961Z,21.37
2022-10-18T03:11:42.096Z,21.37
2022-10-18T03:14:32.240Z,21.37
2022-10-18T03:17:22.669Z,21.36
2022-10-18T03:20:14.339Z,21.36
2022-10-18T03:23:04.499Z,21.36
2022-10-18T03:25:54.700Z,21.36
2022-10-18T03:28:45.111Z,21.36
2022-10-18T03:31:34.966Z,21.37
2022-10-18T03:34:24.841Z,21.36
2022-10-18T03:37:14.804Z,21.36
2022-10-18T03:40:05.691Z,21.35
2022-10-18T03:42:55.924Z,21.35
2022-10-18T03:45:46.051Z,21.34
2022-10-18T03:48:36.163Z,21.34
2022-10-18T03:51:26.104Z,21.33
2022-10-18T03:54:16.297Z,21.33
2022-10-18T03:57:06.524Z,21.33
2022-10-18T03:59:56.089Z,21.31
2022-10-18T04:02:45.917Z,21.31
2022-10-18T04:05:36.632Z,21.29
2022-10-18T04:08:26.721Z,21.27
2022-10-18T04:11:17.607Z,21.26
2022-10-18T04:14:07.404Z,21.24
2022-10-18T04:16:57.170Z,21.24
2022-10-18T04:19:46.864Z,21.24
2022-10-18T04:22:36.628Z,21.23
2022-10-18T04:25:26.575Z,21.23
2022-10-18T04:28:16.592Z,21.22
2022-10-18T04:31:06.416Z,21.22
2022-10-18T04:33:56.725Z,21.22
2022-10-18T04:36:47.096Z,21.22
2022-10-18T04:39:37.324Z,21.22
2022-10-18T04:42:27.646Z,21.23
2022-10-18T04:45:18.824Z,21.24
2022-10-18T04:48:09.861Z,21.26
2022-10-18T04:50:59.754Z,21.27
2022-10-18T04:53:49.531Z,21.27
2022-10-18T04:56:39.348Z,21.26
2022-10-18T04:59:29.091Z,21.25
2022-10-18T05:02:19.372Z,21.24
2022-10-18T05:05:13.930Z,21.22
2022-10-18T05:08:04.516Z,21.20
2022-10-18T05:10:54.494Z,21.19
2022-10-18T05:13:47.191Z,21.18
2022-10-18T05:16:40.670Z,21.16
2022-10-18T05:19:30.365Z,21.15
2022-10-18T05:22:20.286Z,21.15
2022-10-18T05:25:11.688Z,21.16
2022-10-18T05:28:10.507Z,21.16
2022-10-18T05:31:07.349Z,21.16
2022-10-18T05:33:57.373Z,21.13
2022-10-18T05:36:47.663Z,21.15
2022-10-18T05:39:38.098Z,21.25
2022-10-18T05:42:28.319Z,21.38
2022-10-18T05:45:18.565Z,21.50
2022-10-18T05:48:09.535Z,21.60
2022-10-18T05:51:02.401Z,21.69
2022-10-18T05:53:53.104Z,21.79
2022-10-18T05:56:43.396Z,21.81
2022-10-18T05:59:33.482Z,21.79
2022-10-18T06:02:23.475Z,21.78
2022-10-18T06:05:13.575Z,21.76
2022-10-18T06:08:06.484Z,21.78
2022-10-18T06:10:59.613Z,21.82
2022-10-18T06:13:50.952Z,21.84
2022-10-18T06:16:41.015Z,21.87
2022-10-18T06:19:30.963Z,21.90
2022-10-18T06:22:21.008Z,21.91
2022-10-18T06:25:12.079Z,21.94
2022-10-18T06:28:01.911Z,21.96
2022-10-18T06:30:51.567Z,22.00
2022-10-18T06:33:41.913Z,22.07
2022-10-18T06:36:32.397Z,22.15
2022-10-18T06:39:22.389Z,22.21
2022-10-18T06:42:13.097Z,22.25
2022-10-18T06:45:03.639Z,22.27
2022-10-18T06:47:53.382Z,22.28
2022-10-18T06:50:44.264Z,22.28
2022-10-18T06:53:43.788Z,22.29
2022-10-18T06:56:35.300Z,22.32
2022-10-18T06:59:28.879Z,22.33
2022-10-18T07:02:21.460Z,22.35
2022-10-18T07:05:13.049Z,22.40
2022-10-18T07:08:02.723Z,22.46
2022-10-18T07:10:56.422Z,22.52
2022-10-18T07:13:46.789Z,22.59
2022-10-18T07:16:37.052Z,22.67
2022-10-18T07:19:27.928Z,22.74
2022-10-18T07:22:17.657Z,22.81
2022-10-18T07:25:08.591Z,22.89
2022-10-18T07:27:58.600Z,22.97
2022-10-18T07:30:48.567Z,23.03
2022-10-18T07:33:39.175Z,23.10
2022-10-18T07:36:29.077Z,23.17
2022-10-18T07:39:20.521Z,23.22
2022-10-18T07:42:11.053Z,23.28
2022-10-18T07:48:20.792Z,23.39
2022-10-18T07:51:11.833Z,23.45
2022-10-18T07:54:01.848Z,23.51
2022-10-18T07:56:52.318Z,23.57
2022-10-18T07:59:46.353Z,23.61
2022-10-18T08:02:36.430Z,23.59
2022-10-18T08:05:27.320Z,23.60
2022-10-18T08:08:17.397Z,23.66
2022-10-18T08:11:09.796Z,23.75
2022-10-18T08:14:00.172Z,23.83
2022-10-18T08:16:50.211Z,23.92
2022-10-18T08:19:48.308Z,24.02
2022-10-18T08:22:51.233Z,24.12
2022-10-18T08:25:41.477Z,24.19
2022-10-18T08:28:31.480Z,24.21
2022-10-18T08:31:21.786Z,24.26
2022-10-18T08:34:14.828Z,24.35
2022-10-18T08:37:08.845Z,24.46
2022-10-18T08:39:59.451Z,24.58
2022-10-18T08:42:59.248Z,24.69
2022-10-18T08:45:50.827Z,24.95
2022-10-18T08:48:48.867Z,25.67
2022-10-18T08:51:42.811Z,26.60
2022-10-18T08:54:39.528Z,27.63
2022-10-18T08:57:29.586Z,28.62
2022-10-18T09:00:22.035Z,29.42
2022-10-18T09:03:27.104Z,29.88
2022-10-18T09:06:27.025Z,29.94
2022-10-18T09:09:29.609Z,30.06
2022-10-18T09:12:51.047Z,30.17
2022-10-18T09:15:50.990Z,29.89
2022-10-18T09:18:57.871Z,29.46
2022-10-18T09:21:53.238Z,29.15
2022-10-18T09:24:47.265Z,28.89
2022-10-18T09:27:45.745Z,28.56
2022-10-18T09:30:52.318Z,28.21
2022-10-18T09:33:51.830Z,27.95
2022-10-18T09:36:42.177Z,27.77
2022-10-18T09:39:36.872Z,27.53
2022-10-18T09:42:33.091Z,27.34
2022-10-18T09:45:29.216Z,27.24
2022-10-18T09:48:23.480Z,27.13
2022-10-18T09:51:17.822Z,26.87
2022-10-18T09:54:16.292Z,26.79
2022-10-18T09:57:11.475Z,26.64
2022-10-18T10:00:04.739Z,26.47
2022-10-18T10:02:55.251Z,26.45
2022-10-18T10:05:45.809Z,26.51
2022-10-18T10:08:36.881Z,26.57
2022-10-18T10:11:36.990Z,26.58
2022-10-18T10:14:30.561Z,26.60
2022-10-18T10:17:27.605Z,26.62
2022-10-18T10:20:23.441Z,26.64
2022-10-18T10:23:22.352Z,26.67
2022-10-18T10:26:24.905Z,26.70
2022-10-18T10:29:49.569Z,26.75
2022-10-18T10:32:51.667Z,26.75
2022-10-18T10:35:53.026Z,26.76
2022-10-18T10:38:44.288Z,26.80
2022-10-18T10:41:35.627Z,26.83
2022-10-18T10:44:29.865Z,26.85
2022-10-18T10:47:33.924Z,26.91
2022-10-18T10:50:29.930Z,26.95
2022-10-18T10:53:44.105Z,26.98
2022-10-18T10:56:37.451Z,26.98
2022-10-18T10:59:31.845Z,27.00
2022-10-18T11:02:30.899Z,27.03
2022-10-18T11:05:26.869Z,27.01
2022-10-18T11:08:23.959Z,26.99
2022-10-18T11:11:23.127Z,26.94
2022-10-18T11:14:27.057Z,26.92
2022-10-18T11:17:26.556Z,26.78
2022-10-18T11:20:26.698Z,26.61
2022-10-18T11:23:18.006Z,26.53
2022-10-18T11:26:28.203Z,26.52
2022-10-18T11:29:35.075Z,26.55
2022-10-18T11:32:32.611Z,26.60
2022-10-18T11:35:38.890Z,26.61
2022-10-18T11:38:40.322Z,26.64
2022-10-18T11:41:42.195Z,26.66
2022-10-18T11:44:40.774Z,26.67
2022-10-18T11:47:39.975Z,26.68
2022-10-18T11:50:36.048Z,26.67
2022-10-18T11:53:35.893Z,26.69
2022-10-18T11:56:34.159Z,26.70
2022-10-18T11:59:37.692Z,26.70
2022-10-18T12:02:49.487Z,26.70
2022-10-18T12:05:42.834Z,26.69
2022-10-18T12:08:39.254Z,26.71
2022-10-18T12:11:33.069Z,26.76
2022-10-18T12:14:28.549Z,26.79
2022-10-18T12:17:51.030Z,26.80
2022-10-18T12:20:43.053Z,26.79
2022-10-18T12:23:43.491Z,26.80
2022-10-18T12:26:35.180Z,26.77
2022-10-18T12:29:31.019Z,26.76
2022-10-18T12:32:26.080Z,26.80
2022-10-18T12:35:20.776Z,26.77
2022-10-18T12:38:22.305Z,26.70
2022-10-18T12:41:22.104Z,26.62
2022-10-18T12:44:23.942Z,26.49
2022-10-18T12:47:24.818Z,26.36
2022-10-18T12:50:31.363Z,26.24
2022-10-18T12:53:26.719Z,26.16
2022-10-18T12:56:38.327Z,26.14
2022-10-18T12:59:54.856Z,26.08
2022-10-18T13:02:45.186Z,25.97
2022-10-18T13:05:57.912Z,25.90
2022-10-18T13:08:51.097Z,25.93
2022-10-18T13:11:40.679Z,25.92
2022-10-18T13:15:05.942Z,25.94
2022-10-18T13:18:16.393Z,25.93
2022-10-18T13:21:18.863Z,25.86
2022-10-18T13:24:22.428Z,25.74
2022-10-18T13:27:35.367Z,25.65
2022-10-18T13:30:42.048Z,25.67
2022-10-18T13:33:42.489Z,25.58
2022-10-18T13:36:35.209Z,25.36
2022-10-18T13:39:25.571Z,25.26
2022-10-18T13:42:35.383Z,25.22
2022-10-18T13:45:54.786Z,25.17
2022-10-18T13:48:56.149Z,25.04
2022-10-18T13:52:02.077Z,24.92
2022-10-18T13:55:10.485Z,24.83
2022-10-18T13:58:11.455Z,24.70
2022-10-18T14:01:16.460Z,24.58
2022-10-18T14:04:40.198Z,24.47
2022-10-18T14:07:30.820Z,24.37
2022-10-18T14:10:43.756Z,24.27
2022-10-18T14:13:48.161Z,24.20
2022-10-18T14:16:41.906Z,24.22
2022-10-18T14:19:37.884Z,24.24
2022-10-18T14:22:33.667Z,24.24
2022-10-18T14:25:29.300Z,24.26
2022-10-18T14:28:27.377Z,24.27
2022-10-18T14:31:22.631Z,24.30
2022-10-18T14:34:17.362Z,24.31
2022-10-18T14:37:15.498Z,24.33
2022-10-18T14:40:07.376Z,24.32
2022-10-18T14:42:57.521Z,24.32
2022-10-18T14:45:47.579Z,24.32
2022-10-18T14:48:37.932Z,24.32
2022-10-18T14:51:29.987Z,24.33
2022-10-18T14:54:24.079Z,24.33
2022-10-18T14:57:23.439Z,24.33
2022-10-18T15:00:25.776Z,24.31
2022-10-18T15:03:18.286Z,24.24
2022-10-18T15:06:09.994Z,24.15
2022-10-18T15:09:04.269Z,24.10
2022-10-18T15:11:57.931Z,24.06
2022-10-18T15:14:49.166Z,24.05
2022-10-18T15:17:39.131Z,24.03
2022-10-18T15:20:32.373Z,24.01
2022-10-18T15:23:25.940Z,24.01
2022-10-18T15:26:22.240Z,23.95
2022-10-18T15:29:20.660Z,23.89
2022-10-18T15:32:20.873Z,23.86
2022-10-18T15:35:19.171Z,23.83
2022-10-18T15:38:27.554Z,23.80
2022-10-18T15:41:50.889Z,23.79
2022-10-18T15:44:51.909Z,23.75
2022-10-18T15:47:57.708Z,23.74
2022-10-18T15:50:49.813Z,23.76
2022-10-18T15:53:46.019Z,23.76
2022-10-18T15:56:37.429Z,23.73
2022-10-18T15:59:31.010Z,23.65
2022-10-18T16:02:22.003Z,23.56
2022-10-18T16:05:17.952Z,23.51
2022-10-18T16:08:08.122Z,23.47
2022-10-18T16:10:58.788Z,23.43
2022-10-18T16:13:49.177Z,23.39
2022-10-18T16:16:40.627Z,23.32
2022-10-18T16:19:32.173Z,23.26
2022-10-18T16:22:21.761Z,23.20
2022-10-18T16:25:12.173Z,23.16
2022-10-18T16:28:02.307Z,23.13
2022-10-18T16:30:56.823Z,23.12
2022-10-18T16:33:47.407Z,23.11
2022-10-18T16:36:38.867Z,23.08
2022-10-18T16:39:34.784Z,23.04
2022-10-18T16:42:27.080Z,22.99
2022-10-18T16:45:17.899Z,22.96
2022-10-18T16:48:10.707Z,22.92
2022-10-18T16:51:01.397Z,22.87
2022-10-18T16:53:53.478Z,22.82
2022-10-18T16:56:43.741Z,22.77
2022-10-18T16:59:34.987Z,22.71
2022-10-18T17:02:25.131Z,22.66
2022-10-18T17:05:15.358Z,22.64
2022-10-18T17:08:06.576Z,22.60
2022-10-18T17:10:59.455Z,22.57
2022-10-18T17:13:49.276Z,22.57
2022-10-18T17:16:39.920Z,22.58
2022-10-18T17:19:30.472Z,22.61
2022-10-18T17:22:20.871Z,22.63
2022-10-18T17:25:11.465Z,22.65
2022-10-18T17:28:01.562Z,22.68
2022-10-18T17:30:51.889Z,22.69
2022-10-18T17:33:41.757Z,22.70
2022-10-18T17:36:33.003Z,22.72
2022-10-18T17:39:22.963Z,22.75
2022-10-18T17:42:13.290Z,22.77
2022-10-18T17:45:03.177Z,22.81
2022-10-18T17:47:53.172Z,22.85
2022-10-18T17:50:44.374Z,22.88
2022-10-18T17:53:34.968Z,22.92
2022-10-18T17:56:25.514Z,22.97
2022-10-18T17:59:15.506Z,22.99
2022-10-18T18:02:05.696Z,23.01
2022-10-18T18:04:57.607Z,23.02
2022-10-18T18:07:48.023Z,23.01
2022-10-18T18:10:38.274Z,23.02
2022-10-18T18:13:28.391Z,23.03
2022-10-18T18:16:20.426Z,23.03
2022-10-18T18:19:11.338Z,23.04
2022-10-18T18:22:03.789Z,23.05
2022-10-18T18:24:53.379Z,23.05
2022-10-18T18:27:43.288Z,23.05
2022-10-18T18:30:33.186Z,23.06
2022-10-18T18:33:22.822Z,23.07
2022-10-18T18:36:14.371Z,23.11
2022-10-18T18:39:05.714Z,23.15
2022-10-18T18:41:56.133Z,23.18
2022-10-18T18:44:47.078Z,23.22
2022-10-18T18:47:36.814Z,23.24
2022-10-18T18:50:27.247Z,23.24
2022-10-18T18:53:17.391Z,23.23
2022-10-18T18:56:10.486Z,23.22
2022-10-18T18:59:00.964Z,23.21
2022-10-18T19:01:51.536Z,23.19
2022-10-18T19:04:41.894Z,23.16
2022-10-18T19:07:31.924Z,23.14
2022-10-18T19:10:22.530Z,23.11
2022-10-18T19:13:13.627Z,23.11
2022-10-18T19:16:22.786Z,23.10
2022-10-18T19:19:15.506Z,23.07
2022-10-18T19:22:05.248Z,23.03
2022-10-18T19:24:55.068Z,23.01
2022-10-18T19:27:45.014Z,23.02
2022-10-18T19:30:35.480Z,23.04
2022-10-18T19:33:41.382Z,23.05
2022-10-18T19:36:36.427Z,23.04
2022-10-18T19:39:27.987Z,23.06
2022-10-18T19:42:22.759Z,23.08
2022-10-18T19:45:16.908Z,23.05
2022-10-18T19:48:10.302Z,23.03
2022-10-18T19:51:09.421Z,23.05
2022-10-18T19:54:00.372Z,23.05
2022-10-18T19:56:50.578Z,23.05
2022-10-18T20:02:36.419Z,23.04
2022-10-18T20:05:26.889Z,23.04
2022-10-18T20:08:16.697Z,23.04
2022-10-18T20:11:08.304Z,23.05
2022-10-18T20:13:59.765Z,23.05
2022-10-18T20:16:50.305Z,23.05
2022-10-18T20:19:40.853Z,23.04
2022-10-18T20:22:32.866Z,23.02
2022-10-18T20:25:23.110Z,23.00
2022-10-18T20:28:13.016Z,22.96
2022-10-18T20:31:08.414Z,22.96
2022-10-18T20:34:00.334Z,22.96
2022-10-18T20:36:50.180Z,22.97
2022-10-18T20:39:40.682Z,22.98
2022-10-18T20:42:30.932Z,22.98
2022-10-18T20:45:21.176Z,22.98
2022-10-18T20:48:11.341Z,22.97
2022-10-18T20:51:06.318Z,22.96
2022-10-18T20:53:57.417Z,22.94
2022-10-18T20:56:48.060Z,22.93
2022-10-18T20:59:38.206Z,22.94
2022-10-18T21:02:28.447Z,22.95
2022-10-18T21:05:19.201Z,22.97
2022-10-18T21:08:10.001Z,22.98
2022-10-18T21:11:03.287Z,22.98
2022-10-18T21:13:57.625Z,22.98
2022-10-18T21:16:48.337Z,22.97
2022-10-18T21:19:38.461Z,22.96
2022-10-18T21:22:28.935Z,22.96
2022-10-18T21:25:20.066Z,22.95
2022-10-18T21:28:10.032Z,22.93
2022-10-18T21:31:12.451Z,22.92
2022-10-18T21:34:05.618Z,22.90
2022-10-18T21:36:55.343Z,22.88
2022-10-18T21:39:46.493Z,22.86
2022-10-18T21:42:36.640Z,22.86
2022-10-18T21:45:26.971Z,22.86
2022-10-18T21:48:17.407Z,22.86
2022-10-18T21:51:09.265Z,22.86
2022-10-18T21:54:00.054Z,22.85
2022-10-18T21:56:51.188Z,22.83
2022-10-18T21:59:41.340Z,22.81
2022-10-18T22:02:31.723Z,22.77
2022-10-18T22:05:22.217Z,22.75
2022-10-18T22:08:12.559Z,22.72
2022-10-18T22:11:03.285Z,22.69
2022-10-18T22:13:53.868Z,22.66
2022-10-18T22:16:43.987Z,22.63
2022-10-18T22:19:33.921Z,22.61
2022-10-18T22:22:24.082Z,22.58
2022-10-18T22:25:14.335Z,22.54
2022-10-18T22:28:05.110Z,22.50
2022-10-18T22:30:55.488Z,22.47
2022-10-18T22:33:45.348Z,22.46
2022-10-18T22:36:36.640Z,22.44
2022-10-18T22:39:27.467Z,22.44
2022-10-18T22:42:19.051Z,22.43
2022-10-18T22:45:11.132Z,22.41
2022-10-18T22:48:01.939Z,22.39
2022-10-18T22:50:52.559Z,22.38
2022-10-18T22:53:43.159Z,22.36
2022-10-18T22:56:33.495Z,22.34
2022-10-18T22:59:24.163Z,22.30
2022-10-18T23:02:14.464Z,22.27
2022-10-18T23:05:05.384Z,22.25
2022-10-18T23:07:55.739Z,22.22
2022-10-18T23:10:46.011Z,22.20
2022-10-18T23:13:38.775Z,22.19
2022-10-18T23:16:30.784Z,22.17
2022-10-18T23:19:20.568Z,22.16
2022-10-18T23:22:10.093Z,22.16
2022-10-18T23:24:59.916Z,22.16
2022-10-18T23:27:49.599Z,22.15
2022-10-18T23:30:41.741Z,22.15
2022-10-18T23:33:32.273Z,22.14
2022-10-18T23:36:23.362Z,22.12
2022-10-18T23:39:14.563Z,22.09
2022-10-18T23:42:04.812Z,22.05
2022-10-18T23:44:54.901Z,22.02
2022-10-18T23:47:44.981Z,22.00
2022-10-18T23:50:35.144Z,21.98
2022-10-18T23:53:25.839Z,21.96
2022-10-18T23:56:17.496Z,21.95
2022-10-18T23:59:07.730Z,21.93
